Time,TemperatureF,DewpointF,PressureIn,WindDirection,WindDirectionDegrees,WindSpeedMPH,WindSpeedGustMPH,Humidity,HourlyPrecipIn,Conditions,Clouds,dailyrainin,SolarRadiationWatts/m^2,SoftwareType,DateUTC
2013-03-30 00:02:00,56.0,45.0,-100.00,ESE,113,4.0,-999.0,67,0.00,,,-99.99,0.000000,,2013-03-30 04:02:00,
2013-03-30 00:13:00,56.0,46.0,-100.00,ESE,122,4.0,-999.0,69,0.00,,,-99.99,0.000000,,2013-03-30 04:13:00,
2013-03-30 00:23:00,56.0,46.0,-100.00,ESE,122,4.0,-999.0,69,0.00,,,-99.99,0.000000,,2013-03-30 04:23:00,
2013-03-30 00:32:00,56.0,47.0,-100.00,SE,125,5.0,-999.0,70,0.00,,,-99.99,0.000000,,2013-03-30 04:32:00,
2013-03-30 00:43:00,56.0,47.0,-100.00,ESE,118,5.0,-999.0,72,0.00,,,-99.99,0.000000,,2013-03-30 04:43:00,
2013-03-30 00:53:00,56.0,47.0,-100.00,ESE,118,5.0,-999.0,72,0.00,,,-99.99,0.000000,,2013-03-30 04:53:00,
2013-03-30 01:02:00,56.0,48.0,-100.00,ESE,123,4.0,-999.0,74,0.00,,,-99.99,0.000000,,2013-03-30 05:02:00,
2013-03-30 01:12:00,56.0,48.0,-100.00,ESE,123,4.0,-999.0,74,0.00,,,-99.99,0.000000,,2013-03-30 05:12:00,
2013-03-30 01:22:00,55.0,47.0,-100.00,ESE,107,4.0,-999.0,75,0.00,,,-99.99,0.000000,,2013-03-30 05:22:00,
2013-03-30 01:32:00,54.0,47.0,-100.00,East,94,4.0,-999.0,76,0.00,,,-99.99,0.000000,,2013-03-30 05:32:00,
2013-03-30 01:42:00,53.0,46.0,-100.00,East,86,2.0,-999.0,77,0.00,,,-99.99,0.000000,,2013-03-30 05:42:00,
2013-03-30 01:52:00,53.0,46.0,-100.00,East,86,2.0,-999.0,77,0.00,,,-99.99,0.000000,,2013-03-30 05:52:00,
2013-03-30 02:02:00,52.0,46.0,-100.00,West,279,3.0,-999.0,82,0.00,,,-99.99,0.000000,,2013-03-30 06:02:00,
2013-03-30 02:12:00,51.0,47.0,-100.00,WNW,291,5.0,-999.0,86,0.00,,,-99.99,0.000000,,2013-03-30 06:12:00,
2013-03-30 02:23:00,51.0,47.0,-100.00,WNW,291,5.0,-999.0,86,0.00,,,-99.99,0.000000,,2013-03-30 06:23:00,
2013-03-30 02:32:00,50.0,47.0,-100.00,WNW,303,6.0,-999.0,88,0.00,,,-99.99,0.000000,,2013-03-30 06:32:00,
2013-03-30 02:42:00,50.0,47.0,-100.00,WNW,302,5.0,-999.0,89,0.00,,,-99.99,0.000000,,2013-03-30 06:42:00,
2013-03-30 02:52:00,50.0,47.0,-100.00,WNW,302,5.0,-999.0,89,0.00,,,-99.99,0.000000,,2013-03-30 06:52:00,
2013-03-30 03:02:00,50.0,47.0,-100.00,WNW,301,5.0,-999.0,90,0.00,,,-99.99,0.000000,,2013-03-30 07:02:00,
2013-03-30 03:12:00,50.0,48.0,-100.00,WNW,303,5.0,-999.0,91,0.00,,,-99.99,0.000000,,2013-03-30 07:12:00,
2013-03-30 03:22:00,50.0,48.0,-100.00,WNW,303,5.0,-999.0,91,0.00,,,-99.99,0.000000,,2013-03-30 07:22:00,
2013-03-30 03:32:00,50.0,47.0,-100.00,NNW,327,3.0,-999.0,90,0.00,,,-99.99,0.000000,,2013-03-30 07:32:00,
2013-03-30 03:42:00,49.0,46.0,-100.00,NNW,339,3.0,-999.0,91,0.00,,,-99.99,0.000000,,2013-03-30 07:42:00,
2013-03-30 03:52:00,49.0,46.0,-100.00,NNW,339,3.0,-999.0,91,0.00,,,-99.99,0.000000,,2013-03-30 07:52:00,
2013-03-30 04:02:00,47.0,45.0,-100.00,NNW,337,2.0,-999.0,91,0.00,,,-99.99,0.000000,,2013-03-30 08:02:00,
2013-03-30 04:12:00,46.0,44.0,-100.00,NNW,340,2.0,-999.0,92,0.00,,,-99.99,0.000000,,2013-03-30 08:12:00,
2013-03-30 04:22:00,46.0,44.0,-100.00,NNW,340,2.0,-999.0,92,0.00,,,-99.99,0.000000,,2013-03-30 08:22:00,
2013-03-30 04:32:00,48.0,46.0,-100.00,North,9,3.0,-999.0,94,0.00,,,-99.99,0.000000,,2013-03-30 08:32:00,
2013-03-30 04:42:00,48.0,47.0,-100.00,NNW,347,3.0,-999.0,94,0.00,,,-99.99,0.000000,,2013-03-30 08:42:00,
2013-03-30 04:53:00,48.0,47.0,-100.00,NNW,347,3.0,-999.0,94,0.00,,,-99.99,0.000000,,2013-03-30 08:53:00,
2013-03-30 05:02:00,47.0,46.0,-100.00,NNE,21,3.0,-999.0,94,0.00,,,-99.99,0.000000,,2013-03-30 09:02:00,
2013-03-30 05:12:00,49.0,47.0,-100.00,NE,40,4.0,-999.0,95,0.00,,,-99.99,0.000000,,2013-03-30 09:12:00,
2013-03-30 05:22:00,49.0,47.0,-100.00,NE,40,4.0,-999.0,95,0.00,,,-99.99,0.000000,,2013-03-30 09:22:00,
2013-03-30 05:43:00,49.0,48.0,-100.00,NNE,28,7.0,-999.0,95,0.00,,,-99.99,0.000000,,2013-03-30 09:43:00,
2013-03-30 05:53:00,49.0,48.0,-100.00,NNE,28,7.0,-999.0,95,0.00,,,-99.99,0.000000,,2013-03-30 09:53:00,
2013-03-30 06:02:00,50.0,48.0,-100.00,NNE,31,7.0,-999.0,94,0.00,,,-99.99,0.000000,,2013-03-30 10:02:00,
2013-03-30 06:13:00,49.0,48.0,-100.00,NE,35,6.0,-999.0,94,0.00,,,-99.99,0.000000,,2013-03-30 10:13:00,
2013-03-30 06:23:00,49.0,48.0,-100.00,NE,35,6.0,-999.0,94,0.00,,,-99.99,0.000000,,2013-03-30 10:23:00,
2013-03-30 06:33:00,50.0,48.0,-100.00,NE,36,6.0,-999.0,94,0.00,,,-99.99,0.000000,,2013-03-30 10:33:00,
2013-03-30 06:42:00,50.0,48.0,-100.00,NE,54,4.0,-999.0,93,0.00,,,-99.99,0.000000,,2013-03-30 10:42:00,
2013-03-30 06:52:00,50.0,48.0,-100.00,NE,54,4.0,-999.0,93,0.00,,,-99.99,0.000000,,2013-03-30 10:52:00,
2013-03-30 07:03:00,49.0,47.0,-100.00,NE,48,4.0,-999.0,93,0.00,,,-99.99,0.000000,,2013-03-30 11:03:00,
2013-03-30 07:12:00,49.0,47.0,-100.00,NNE,29,5.0,-999.0,93,0.00,,,-99.99,0.000000,,2013-03-30 11:12:00,
2013-03-30 07:22:00,49.0,47.0,-100.00,NNE,29,5.0,-999.0,93,0.00,,,-99.99,0.000000,,2013-03-30 11:22:00,
2013-03-30 07:33:00,49.0,48.0,-100.00,NNE,27,3.0,-999.0,94,0.00,,,-99.99,0.800000,,2013-03-30 11:33:00,
2013-03-30 07:42:00,50.0,48.0,-100.00,NNE,32,3.0,-999.0,94,0.00,,,-99.99,7.100000,,2013-03-30 11:42:00,
2013-03-30 07:53:00,50.0,48.0,-100.00,NNE,32,3.0,-999.0,94,0.00,,,-99.99,7.100000,,2013-03-30 11:53:00,
2013-03-30 08:02:00,50.0,49.0,-100.00,NE,35,3.0,-999.0,94,0.00,,,-99.99,25.400000,,2013-03-30 12:02:00,
2013-03-30 08:13:00,51.0,50.0,-100.00,NE,41,3.0,-999.0,94,0.00,,,-99.99,76.400002,,2013-03-30 12:13:00,
2013-03-30 08:22:00,51.0,50.0,-100.00,NE,41,3.0,-999.0,94,0.00,,,-99.99,76.400002,,2013-03-30 12:22:00,
2013-03-30 08:32:00,53.0,51.0,-100.00,ENE,65,2.0,-999.0,93,0.00,,,-99.99,129.800003,,2013-03-30 12:32:00,
2013-03-30 08:42:00,55.0,53.0,-100.00,ENE,76,3.0,-999.0,92,0.00,,,-99.99,180.000000,,2013-03-30 12:42:00,
2013-03-30 08:53:00,55.0,53.0,-100.00,ENE,76,3.0,-999.0,92,0.00,,,-99.99,180.000000,,2013-03-30 12:53:00,
2013-03-30 09:02:00,56.0,53.0,-100.00,East,86,2.0,-999.0,89,0.00,,,-99.99,230.699997,,2013-03-30 13:02:00,
2013-03-30 09:12:00,58.0,53.0,-100.00,ESE,102,4.0,-999.0,84,0.00,,,-99.99,282.700012,,2013-03-30 13:12:00,
2013-03-30 09:22:00,58.0,53.0,-100.00,ESE,102,4.0,-999.0,84,0.00,,,-99.99,282.700012,,2013-03-30 13:22:00,
2013-03-30 09:32:00,59.0,53.0,-100.00,ESE,113,3.0,-999.0,78,0.00,,,-99.99,335.799988,,2013-03-30 13:32:00,
2013-03-30 09:43:00,62.0,53.0,-100.00,SE,140,4.0,-999.0,74,0.00,,,-99.99,389.000000,,2013-03-30 13:43:00,
2013-03-30 09:53:00,62.0,53.0,-100.00,SE,140,4.0,-999.0,74,0.00,,,-99.99,389.000000,,2013-03-30 13:53:00,
2013-03-30 10:02:00,63.0,54.0,-100.00,SSE,148,6.0,-999.0,71,0.00,,,-99.99,440.600006,,2013-03-30 14:02:00,
2013-03-30 10:12:00,65.0,54.0,-100.00,SSE,156,6.0,-999.0,67,0.00,,,-99.99,491.700012,,2013-03-30 14:12:00,
2013-03-30 10:23:00,65.0,54.0,-100.00,SSE,156,6.0,-999.0,67,0.00,,,-99.99,491.700012,,2013-03-30 14:23:00,
2013-03-30 10:32:00,66.0,53.0,-100.00,SSE,158,7.0,-999.0,62,0.00,,,-99.99,540.599976,,2013-03-30 14:32:00,
2013-03-30 10:42:00,68.0,53.0,-100.00,SSE,157,9.0,-999.0,58,0.00,,,-99.99,587.400024,,2013-03-30 14:42:00,
2013-03-30 10:52:00,68.0,53.0,-100.00,SSE,157,9.0,-999.0,58,0.00,,,-99.99,587.400024,,2013-03-30 14:52:00,
2013-03-30 11:03:00,69.0,52.0,-100.00,SSE,163,8.0,-999.0,54,0.00,,,-99.99,436.600006,,2013-03-30 15:03:00,
2013-03-30 11:12:00,70.0,50.0,-100.00,South,171,10.0,-999.0,49,0.00,,,-99.99,674.200012,,2013-03-30 15:12:00,
2013-03-30 11:22:00,70.0,50.0,-100.00,South,171,10.0,-999.0,49,0.00,,,-99.99,674.200012,,2013-03-30 15:22:00,
2013-03-30 11:33:00,70.0,49.0,-100.00,SSE,161,9.0,-999.0,46,0.00,,,-99.99,713.000000,,2013-03-30 15:33:00,
2013-03-30 11:43:00,71.0,50.0,-100.00,South,189,9.0,-999.0,46,0.00,,,-99.99,742.000000,,2013-03-30 15:43:00,
2013-03-30 11:53:00,71.0,50.0,-100.00,South,189,9.0,-999.0,46,0.00,,,-99.99,742.000000,,2013-03-30 15:53:00,
2013-03-30 12:03:00,72.0,49.0,-100.00,SSW,203,9.0,-999.0,44,0.00,,,-99.99,769.000000,,2013-03-30 16:03:00,
2013-03-30 12:13:00,72.0,47.0,-100.00,SSW,192,9.0,-999.0,42,0.00,,,-99.99,801.000000,,2013-03-30 16:13:00,
2013-03-30 12:23:00,72.0,47.0,-100.00,SSW,192,9.0,-999.0,42,0.00,,,-99.99,801.000000,,2013-03-30 16:23:00,
2013-03-30 12:33:00,72.0,48.0,-100.00,SSW,207,9.0,-999.0,41,0.00,,,-99.99,827.000000,,2013-03-30 16:33:00,
2013-03-30 12:43:00,73.0,48.0,-100.00,SSW,207,8.0,-999.0,40,0.00,,,-99.99,845.000000,,2013-03-30 16:43:00,
2013-03-30 12:53:00,73.0,48.0,-100.00,SSW,207,8.0,-999.0,40,0.00,,,-99.99,845.000000,,2013-03-30 16:53:00,
2013-03-30 13:02:00,74.0,47.0,-100.00,SW,217,7.0,-999.0,39,0.00,,,-99.99,866.000000,,2013-03-30 17:02:00,
2013-03-30 13:13:00,74.0,46.0,-100.00,South,190,7.0,-999.0,37,0.00,,,-99.99,877.000000,,2013-03-30 17:13:00,
2013-03-30 13:23:00,74.0,46.0,-100.00,South,190,7.0,-999.0,37,0.00,,,-99.99,877.000000,,2013-03-30 17:23:00,
2013-03-30 13:32:00,74.0,46.0,-100.00,SSE,161,7.0,-999.0,36,0.00,,,-99.99,881.000000,,2013-03-30 17:32:00,
2013-03-30 13:42:00,74.0,46.0,-100.00,SSE,158,5.0,-999.0,36,0.00,,,-99.99,888.000000,,2013-03-30 17:42:00,
2013-03-30 13:53:00,74.0,46.0,-100.00,SSE,158,5.0,-999.0,36,0.00,,,-99.99,888.000000,,2013-03-30 17:53:00,
2013-03-30 14:03:00,75.0,46.0,-100.00,SSW,194,6.0,-999.0,36,0.00,,,-99.99,899.000000,,2013-03-30 18:03:00,
2013-03-30 14:13:00,75.0,46.0,-100.00,SSE,163,8.0,-999.0,35,0.00,,,-99.99,907.000000,,2013-03-30 18:13:00,
2013-03-30 14:22:00,75.0,46.0,-100.00,SSE,163,8.0,-999.0,35,0.00,,,-99.99,907.000000,,2013-03-30 18:22:00,
2013-03-30 14:32:00,76.0,47.0,-100.00,SSW,204,5.0,-999.0,35,0.00,,,-99.99,923.000000,,2013-03-30 18:32:00,
2013-03-30 14:42:00,76.0,47.0,-100.00,SSW,204,5.0,-999.0,35,0.00,,,-99.99,923.000000,,2013-03-30 18:42:00,
2013-03-30 14:53:00,77.0,47.0,-100.00,South,188,7.0,-999.0,34,0.00,,,-99.99,827.000000,,2013-03-30 18:53:00,
2013-03-30 15:03:00,76.0,47.0,-100.00,SSW,204,5.0,-999.0,35,0.00,,,-99.99,612.000000,,2013-03-30 19:03:00,
2013-03-30 15:13:00,76.0,47.0,-100.00,South,174,7.0,-999.0,35,0.00,,,-99.99,621.599976,,2013-03-30 19:13:00,
2013-03-30 15:22:00,76.0,47.0,-100.00,South,174,7.0,-999.0,35,0.00,,,-99.99,621.599976,,2013-03-30 19:22:00,
2013-03-30 15:32:00,76.0,47.0,-100.00,SSE,161,6.0,-999.0,35,0.00,,,-99.99,678.299988,,2013-03-30 19:32:00,
2013-03-30 15:42:00,76.0,47.0,-100.00,SE,131,6.0,-999.0,35,0.00,,,-99.99,626.900024,,2013-03-30 19:42:00,
2013-03-30 15:53:00,76.0,47.0,-100.00,SE,131,6.0,-999.0,35,0.00,,,-99.99,626.900024,,2013-03-30 19:53:00,
2013-03-30 16:02:00,76.0,47.0,-100.00,South,172,6.0,-999.0,35,0.00,,,-99.99,435.100006,,2013-03-30 20:02:00,
2013-03-30 16:12:00,76.0,47.0,-100.00,South,184,7.0,-999.0,35,0.00,,,-99.99,571.799988,,2013-03-30 20:12:00,
2013-03-30 16:22:00,76.0,47.0,-100.00,South,184,7.0,-999.0,35,0.00,,,-99.99,571.799988,,2013-03-30 20:22:00,
2013-03-30 16:32:00,76.0,47.0,-100.00,South,175,5.0,-999.0,35,0.00,,,-99.99,340.299988,,2013-03-30 20:32:00,
2013-03-30 16:42:00,77.0,47.0,-100.00,South,171,4.0,-999.0,34,0.00,,,-99.99,649.500000,,2013-03-30 20:42:00,
2013-03-30 16:53:00,77.0,47.0,-100.00,South,171,4.0,-999.0,34,0.00,,,-99.99,649.500000,,2013-03-30 20:53:00,
2013-03-30 17:02:00,78.0,48.0,-100.00,SSW,204,6.0,-999.0,34,0.00,,,-99.99,550.599976,,2013-03-30 21:02:00,
2013-03-30 17:12:00,77.0,48.0,-100.00,SSW,212,5.0,-999.0,35,0.00,,,-99.99,361.600006,,2013-03-30 21:12:00,
2013-03-30 17:22:00,77.0,48.0,-100.00,SSW,212,5.0,-999.0,35,0.00,,,-99.99,361.600006,,2013-03-30 21:22:00,
2013-03-30 17:34:00,78.0,48.0,-100.00,SSW,208,7.0,-999.0,35,0.00,,,-99.99,548.799988,,2013-03-30 21:34:00,
2013-03-30 17:43:00,77.0,48.0,-100.00,SSW,196,7.0,-999.0,36,0.00,,,-99.99,431.399994,,2013-03-30 21:43:00,
2013-03-30 17:53:00,77.0,48.0,-100.00,SSW,196,7.0,-999.0,36,0.00,,,-99.99,431.399994,,2013-03-30 21:53:00,
2013-03-30 18:03:00,78.0,48.0,-100.00,SSW,206,8.0,-999.0,34,0.00,,,-99.99,388.899994,,2013-03-30 22:03:00,
2013-03-30 18:13:00,77.0,48.0,-100.00,SSW,192,6.0,-999.0,36,0.00,,,-99.99,190.800003,,2013-03-30 22:13:00,
2013-03-30 18:23:00,77.0,48.0,-100.00,SSW,192,6.0,-999.0,36,0.00,,,-99.99,190.800003,,2013-03-30 22:23:00,
2013-03-30 18:33:00,76.0,49.0,-100.00,South,189,7.0,-999.0,37,0.00,,,-99.99,249.699997,,2013-03-30 22:33:00,
2013-03-30 18:43:00,75.0,48.0,-100.00,South,180,7.0,-999.0,38,0.00,,,-99.99,91.500000,,2013-03-30 22:43:00,
2013-03-30 18:53:00,75.0,48.0,-100.00,South,180,7.0,-999.0,38,0.00,,,-99.99,91.500000,,2013-03-30 22:53:00,
2013-03-30 19:02:00,75.0,48.0,-100.00,South,169,8.0,-999.0,39,0.00,,,-99.99,58.599998,,2013-03-30 23:02:00,
2013-03-30 19:13:00,74.0,48.0,-100.00,SSE,158,7.0,-999.0,40,0.00,,,-99.99,48.400002,,2013-03-30 23:13:00,
2013-03-30 19:22:00,74.0,48.0,-100.00,SSE,158,7.0,-999.0,40,0.00,,,-99.99,48.400002,,2013-03-30 23:22:00,
2013-03-30 19:33:00,74.0,49.0,-100.00,SSE,160,6.0,-999.0,41,0.00,,,-99.99,31.400000,,2013-03-30 23:33:00,
2013-03-30 19:42:00,73.0,49.0,-100.00,SSE,163,5.0,-999.0,42,0.00,,,-99.99,19.000000,,2013-03-30 23:42:00,
2013-03-30 19:53:00,73.0,49.0,-100.00,SSE,163,5.0,-999.0,42,0.00,,,-99.99,19.000000,,2013-03-30 23:53:00,
2013-03-30 20:02:00,72.0,49.0,-100.00,SW,220,4.0,-999.0,45,0.00,,,-99.99,8.300000,,2013-03-31 00:02:00,
2013-03-30 20:12:00,70.0,50.0,-100.00,West,271,6.0,-999.0,49,0.00,,,-99.99,0.800000,,2013-03-31 00:12:00,
2013-03-30 20:22:00,70.0,50.0,-100.00,West,271,6.0,-999.0,49,0.00,,,-99.99,0.800000,,2013-03-31 00:22:00,
2013-03-30 20:32:00,70.0,49.0,-100.00,WNW,294,8.0,-999.0,48,0.00,,,-99.99,0.000000,,2013-03-31 00:32:00,
2013-03-30 20:43:00,69.0,49.0,-100.00,WNW,282,5.0,-999.0,50,0.00,,,-99.99,0.000000,,2013-03-31 00:43:00,
2013-03-30 20:53:00,69.0,49.0,-100.00,WNW,282,5.0,-999.0,50,0.00,,,-99.99,0.000000,,2013-03-31 00:53:00,
2013-03-30 21:02:00,66.0,49.0,-100.00,West,280,5.0,-999.0,54,0.00,,,-99.99,0.000000,,2013-03-31 01:02:00,
2013-03-30 21:12:00,65.0,50.0,-100.00,WNW,284,5.0,-999.0,58,0.00,,,-99.99,0.000000,,2013-03-31 01:12:00,
2013-03-30 21:22:00,65.0,50.0,-100.00,WNW,284,5.0,-999.0,58,0.00,,,-99.99,0.000000,,2013-03-31 01:22:00,
2013-03-30 21:32:00,63.0,50.0,-100.00,WNW,294,5.0,-999.0,62,0.00,,,-99.99,0.000000,,2013-03-31 01:32:00,
2013-03-30 21:42:00,63.0,50.0,-100.00,WNW,294,5.0,-999.0,62,0.00,,,-99.99,0.000000,,2013-03-31 01:42:00,
2013-03-30 21:53:00,63.0,51.0,-100.00,WNW,298,5.0,-999.0,63,0.00,,,-99.99,0.000000,,2013-03-31 01:53:00,
2013-03-30 22:02:00,62.0,50.0,-100.00,WNW,294,5.0,-999.0,64,0.00,,,-99.99,0.000000,,2013-03-31 02:02:00,
2013-03-30 22:13:00,62.0,50.0,-100.00,WNW,299,5.0,-999.0,64,0.00,,,-99.99,0.000000,,2013-03-31 02:13:00,
2013-03-30 22:22:00,62.0,50.0,-100.00,WNW,299,5.0,-999.0,64,0.00,,,-99.99,0.000000,,2013-03-31 02:22:00,
2013-03-30 22:32:00,61.0,49.0,-100.00,WNW,287,4.0,-999.0,66,0.00,,,-99.99,0.000000,,2013-03-31 02:32:00,
2013-03-30 22:43:00,61.0,49.0,-100.00,WNW,287,4.0,-999.0,66,0.00,,,-99.99,0.000000,,2013-03-31 02:43:00,
2013-03-30 22:52:00,60.0,49.0,-100.00,WNW,297,6.0,-999.0,65,0.00,,,-99.99,0.000000,,2013-03-31 02:52:00,
2013-03-30 23:02:00,61.0,49.0,-100.00,WNW,300,5.0,-999.0,64,0.00,,,-99.99,0.000000,,2013-03-31 03:02:00,
2013-03-30 23:13:00,61.0,49.0,-100.00,SSE,166,5.0,-999.0,64,0.00,,,-99.99,0.000000,,2013-03-31 03:13:00,
2013-03-30 23:22:00,61.0,49.0,-100.00,SSE,166,5.0,-999.0,64,0.00,,,-99.99,0.000000,,2013-03-31 03:22:00,
2013-03-30 23:33:00,64.0,50.0,-100.00,SE,128,7.0,-999.0,60,0.00,,,-99.99,0.000000,,2013-03-31 03:33:00,
2013-03-30 23:43:00,64.0,50.0,-100.00,SE,129,5.0,-999.0,60,0.00,,,-99.99,0.000000,,2013-03-31 03:43:00,
2013-03-30 23:54:00,64.0,50.0,-100.00,SE,129,5.0,-999.0,60,0.00,,,-99.99,0.000000,,2013-03-31 03:54:00,